sensor_id;sensor_type;location;lat;lon;timestamp;pressure;altitude;pressure_sealevel;temperature;humidity
30708;BME280;17458;48.958;8.284;2023-09-08T00:01:38;100437.16;;;22.86;63.63
30708;BME280;17458;48.958;8.284;2023-09-08T00:04:22;100436.22;;;22.78;63.56
30708;BME280;17458;48.958;8.284;2023-09-08T00:09:50;100433.41;;;22.42;65.13
30708;BME280;17458;48.958;8.284;2023-09-08T00:12:34;100424.38;;;22.43;65.05
30708;BME280;17458;48.958;8.284;2023-09-08T00:15:18;100437.88;;;22.31;66.60
30708;BME280;17458;48.958;8.284;2023-09-08T00:18:02;100428.72;;;22.04;68.20
30708;BME280;17458;48.958;8.284;2023-09-08T00:20:47;100429.75;;;22.27;67.69
30708;BME280;17458;48.958;8.284;2023-09-08T00:23:31;100427.13;;;22.52;66.70
30708;BME280;17458;48.958;8.284;2023-09-08T00:26:14;100426.25;;;22.57;65.83
30708;BME280;17458;48.958;8.284;2023-09-08T00:29:00;100428.91;;;22.42;66.36
30708;BME280;17458;48.958;8.284;2023-09-08T00:31:44;100427.97;;;22.30;67.05
30708;BME280;17458;48.958;8.284;2023-09-08T00:34:29;100426.19;;;22.48;66.36
30708;BME280;17458;48.958;8.284;2023-09-08T00:37:13;100422.59;;;22.48;65.99
30708;BME280;17458;48.958;8.284;2023-09-08T00:39:57;100423.47;;;22.47;65.95
30708;BME280;17458;48.958;8.284;2023-09-08T00:42:41;100422.44;;;22.10;66.57
30708;BME280;17458;48.958;8.284;2023-09-08T00:45:28;100431.53;;;22.25;66.83
30708;BME280;17458;48.958;8.284;2023-09-08T00:48:13;100429.78;;;22.38;66.00
30708;BME280;17458;48.958;8.284;2023-09-08T00:50:58;100426.16;;;22.28;66.52
30708;BME280;17458;48.958;8.284;2023-09-08T00:53:42;100419.78;;;22.13;67.36
30708;BME280;17458;48.958;8.284;2023-09-08T00:56:28;100425.25;;;22.28;66.49
30708;BME280;17458;48.958;8.284;2023-09-08T00:59:13;100417.16;;;22.37;66.05
30708;BME280;17458;48.958;8.284;2023-09-08T01:01:57;100420.75;;;22.36;65.60
30708;BME280;17458;48.958;8.284;2023-09-08T01:04:42;100422.63;;;22.57;64.99
30708;BME280;17458;48.958;8.284;2023-09-08T01:07:30;100421.81;;;23.20;62.67
30708;BME280;17458;48.958;8.284;2023-09-08T01:10:15;100432.66;;;22.96;62.26
30708;BME280;17458;48.958;8.284;2023-09-08T01:12:59;100436.16;;;22.66;62.83
30708;BME280;17458;48.958;8.284;2023-09-08T01:15:43;100434.31;;;22.45;63.29
30708;BME280;17458;48.958;8.284;2023-09-08T01:18:27;100437.84;;;22.24;63.86
30708;BME280;17458;48.958;8.284;2023-09-08T01:27:16;100435.94;;;21.99;63.94
30708;BME280;17458;48.958;8.284;2023-09-08T01:30:04;100441.22;;;21.84;64.37
30708;BME280;17458;48.958;8.284;2023-09-08T01:32:50;100435.78;;;21.81;64.34
30708;BME280;17458;48.958;8.284;2023-09-08T01:35:36;100440.28;;;21.77;64.27
30708;BME280;17458;48.958;8.284;2023-09-08T01:38:21;100434.84;;;21.76;64.46
30708;BME280;17458;48.958;8.284;2023-09-08T01:41:06;100427.50;;;21.47;65.97
30708;BME280;17458;48.958;8.284;2023-09-08T01:43:49;100425.66;;;21.45;66.06
30708;BME280;17458;48.958;8.284;2023-09-08T01:46:34;100428.47;;;21.60;65.59
30708;BME280;17458;48.958;8.284;2023-09-08T01:49:18;100427.59;;;21.61;65.41
30708;BME280;17458;48.958;8.284;2023-09-08T01:52:02;100414.81;;;21.40;66.33
30708;BME280;17458;48.958;8.284;2023-09-08T01:54:46;100417.56;;;21.49;66.15
30708;BME280;17458;48.958;8.284;2023-09-08T01:57:30;100418.28;;;21.22;67.15
30708;BME280;17458;48.958;8.284;2023-09-08T02:00:14;100426.56;;;21.44;66.51
30708;BME280;17458;48.958;8.284;2023-09-08T02:02:59;100419.34;;;21.49;65.92
30708;BME280;17458;48.958;8.284;2023-09-08T02:05:43;100422.56;;;20.99;67.83
30708;BME280;17458;48.958;8.284;2023-09-08T02:08:28;100424.16;;;20.77;69.05
30708;BME280;17458;48.958;8.284;2023-09-08T02:11:12;100420.66;;;20.87;68.83
30708;BME280;17458;48.958;8.284;2023-09-08T02:13:56;100424.19;;;20.82;69.21
30708;BME280;17458;48.958;8.284;2023-09-08T02:16:40;100431.56;;;21.00;68.55
30708;BME280;17458;48.958;8.284;2023-09-08T02:19:24;100429.78;;;21.02;68.26
30708;BME280;17458;48.958;8.284;2023-09-08T02:22:09;100424.44;;;21.11;67.46
30708;BME280;17458;48.958;8.284;2023-09-08T02:24:53;100426.19;;;21.03;67.62
30708;BME280;17458;48.958;8.284;2023-09-08T02:27:37;100434.38;;;21.12;67.27
30708;BME280;17458;48.958;8.284;2023-09-08T02:30:20;100428.06;;;21.11;67.44
30708;BME280;17458;48.958;8.284;2023-09-08T02:33:05;100432.59;;;21.14;66.92
30708;BME280;17458;48.958;8.284;2023-09-08T02:35:51;100430.56;;;20.92;67.71
30708;BME280;17458;48.958;8.284;2023-09-08T02:38:36;100432.47;;;21.00;67.33
30708;BME280;17458;48.958;8.284;2023-09-08T02:41:23;100434.31;;;21.04;67.05
30708;BME280;17458;48.958;8.284;2023-09-08T02:44:07;100429.75;;;20.99;66.70
30708;BME280;17458;48.958;8.284;2023-09-08T02:46:51;100426.09;;;20.94;67.19
30708;BME280;17458;48.958;8.284;2023-09-08T02:49:35;100425.00;;;20.73;67.93
30708;BME280;17458;48.958;8.284;2023-09-08T02:52:19;100429.53;;;20.76;68.01
30708;BME280;17458;48.958;8.284;2023-09-08T02:55:03;100420.44;;;20.66;68.09
30708;BME280;17458;48.958;8.284;2023-09-08T02:57:48;100418.47;;;20.51;68.76
30708;BME280;17458;48.958;8.284;2023-09-08T03:00:32;100421.44;;;20.79;67.66
30708;BME280;17458;48.958;8.284;2023-09-08T03:03:15;100426.13;;;20.98;67.47
30708;BME280;17458;48.958;8.284;2023-09-08T03:05:59;100433.66;;;21.30;65.70
30708;BME280;17458;48.958;8.284;2023-09-08T03:08:47;100434.41;;;21.16;65.71
30708;BME280;17458;48.958;8.284;2023-09-08T03:11:32;100431.59;;;21.03;65.93
30708;BME280;17458;48.958;8.284;2023-09-08T03:14:16;100434.25;;;20.98;65.79
30708;BME280;17458;48.958;8.284;2023-09-08T03:17:00;100439.53;;;20.87;65.92
30708;BME280;17458;48.958;8.284;2023-09-08T03:19:45;100441.22;;;20.78;65.94
30708;BME280;17458;48.958;8.284;2023-09-08T03:22:30;100441.19;;;20.72;65.89
30708;BME280;17458;48.958;8.284;2023-09-08T03:25:14;100448.47;;;20.80;65.44
30708;BME280;17458;48.958;8.284;2023-09-08T03:27:58;100445.72;;;20.76;65.50
30708;BME280;17458;48.958;8.284;2023-09-08T03:30:43;100453.69;;;20.62;65.93
30708;BME280;17458;48.958;8.284;2023-09-08T03:33:27;100449.13;;;20.58;65.94
30708;BME280;17458;48.958;8.284;2023-09-08T03:36:11;100454.50;;;20.55;66.01
30708;BME280;17458;48.958;8.284;2023-09-08T03:38:55;100459.94;;;20.60;65.99
30708;BME280;17458;48.958;8.284;2023-09-08T03:41:41;100454.44;;;20.50;65.95
30708;BME280;17458;48.958;8.284;2023-09-08T03:44:25;100458.03;;;20.48;65.96
30708;BME280;17458;48.958;8.284;2023-09-08T03:47:10;100456.19;;;20.45;65.90
30708;BME280;17458;48.958;8.284;2023-09-08T03:49:54;100466.72;;;20.29;66.42
30708;BME280;17458;48.958;8.284;2023-09-08T03:52:39;100455.00;;;20.27;66.31
30708;BME280;17458;48.958;8.284;2023-09-08T03:55:25;100455.84;;;20.23;66.55
30708;BME280;17458;48.958;8.284;2023-09-08T03:58:10;100468.41;;;20.17;66.62
30708;BME280;17458;48.958;8.284;2023-09-08T04:00:54;100460.31;;;20.19;66.43
30708;BME280;17458;48.958;8.284;2023-09-08T04:03:38;100463.06;;;20.24;66.30
30708;BME280;17458;48.958;8.284;2023-09-08T04:06:22;100461.91;;;20.03;67.01
30708;BME280;17458;48.958;8.284;2023-09-08T04:09:08;100462.94;;;20.13;67.00
30708;BME280;17458;48.958;8.284;2023-09-08T04:11:53;100461.97;;;20.09;67.02
30708;BME280;17458;48.958;8.284;2023-09-08T04:14:39;100472.91;;;20.22;66.41
30708;BME280;17458;48.958;8.284;2023-09-08T04:17:23;100473.66;;;20.08;66.68
30708;BME280;17458;48.958;8.284;2023-09-08T04:20:07;100470.91;;;20.04;66.74
30708;BME280;17458;48.958;8.284;2023-09-08T04:22:52;100470.03;;;20.05;66.77
30708;BME280;17458;48.958;8.284;2023-09-08T04:25:36;100470.75;;;19.95;67.04
30708;BME280;17458;48.958;8.284;2023-09-08T04:28:20;100471.66;;;19.95;67.04
30708;BME280;17458;48.958;8.284;2023-09-08T04:31:04;100470.75;;;19.95;67.00
30708;BME280;17458;48.958;8.284;2023-09-08T04:33:48;100473.44;;;19.92;67.22
30708;BME280;17458;48.958;8.284;2023-09-08T04:36:32;100470.66;;;19.87;67.19
30708;BME280;17458;48.958;8.284;2023-09-08T04:39:16;100467.91;;;19.84;67.58
30708;BME280;17458;48.958;8.284;2023-09-08T04:42:01;100466.94;;;19.77;67.82
30708;BME280;17458;48.958;8.284;2023-09-08T04:44:45;100468.09;;;19.96;67.10
30708;BME280;17458;48.958;8.284;2023-09-08T04:47:29;100475.19;;;19.90;67.10
30708;BME280;17458;48.958;8.284;2023-09-08T04:50:13;100468.91;;;19.89;67.06
30708;BME280;17458;48.958;8.284;2023-09-08T04:52:58;100480.53;;;19.87;67.10
30708;BME280;17458;48.958;8.284;2023-09-08T04:55:44;100484.19;;;19.90;66.91
30708;BME280;17458;48.958;8.284;2023-09-08T04:58:28;100487.81;;;19.94;66.84
30708;BME280;17458;48.958;8.284;2023-09-08T05:01:12;100494.13;;;19.94;66.73
30708;BME280;17458;48.958;8.284;2023-09-08T05:03:56;100495.03;;;19.95;66.57
30708;BME280;17458;48.958;8.284;2023-09-08T05:06:40;100500.47;;;19.98;66.50
30708;BME280;17458;48.958;8.284;2023-09-08T05:09:24;100497.84;;;20.02;66.25
30708;BME280;17458;48.958;8.284;2023-09-08T05:12:09;100505.94;;;20.02;66.29
30708;BME280;17458;48.958;8.284;2023-09-08T05:14:54;100501.50;;;20.06;66.16
30708;BME280;17458;48.958;8.284;2023-09-08T05:17:44;100505.91;;;20.01;66.58
30708;BME280;17458;48.958;8.284;2023-09-08T05:20:28;100513.88;;;19.92;66.59
30708;BME280;17458;48.958;8.284;2023-09-08T05:23:12;100505.72;;;19.89;66.98
30708;BME280;17458;48.958;8.284;2023-09-08T05:25:56;100510.19;;;19.87;67.19
30708;BME280;17458;48.958;8.284;2023-09-08T05:28:40;100509.47;;;19.98;66.82
30708;BME280;17458;48.958;8.284;2023-09-08T05:31:25;100505.97;;;20.05;66.66
30708;BME280;17458;48.958;8.284;2023-09-08T05:34:10;100506.09;;;20.14;66.52
30708;BME280;17458;48.958;8.284;2023-09-08T05:36:54;100506.09;;;20.14;66.57
30708;BME280;17458;48.958;8.284;2023-09-08T05:39:40;100514.38;;;20.28;66.42
30708;BME280;17458;48.958;8.284;2023-09-08T05:42:25;100521.78;;;20.43;66.38
30708;BME280;17458;48.958;8.284;2023-09-08T05:45:10;100520.25;;;20.63;65.80
30708;BME280;17458;48.958;8.284;2023-09-08T05:47:54;100518.47;;;20.67;65.94
30708;BME280;17458;48.958;8.284;2023-09-08T05:50:38;100519.34;;;20.64;66.03
30708;BME280;17458;48.958;8.284;2023-09-08T05:53:24;100514.19;;;20.84;65.64
30708;BME280;17458;48.958;8.284;2023-09-08T05:56:09;100520.69;;;21.01;65.38
30708;BME280;17458;48.958;8.284;2023-09-08T05:58:54;100523.44;;;21.09;64.96
30708;BME280;17458;48.958;8.284;2023-09-08T06:01:38;100518.31;;;21.30;64.53
30708;BME280;17458;48.958;8.284;2023-09-08T06:04:24;100528.34;;;21.48;63.98
30708;BME280;17458;48.958;8.284;2023-09-08T06:07:09;100528.50;;;21.68;63.79
30708;BME280;17458;48.958;8.284;2023-09-08T06:09:53;100525.84;;;21.72;63.78
30708;BME280;17458;48.958;8.284;2023-09-08T06:12:37;100530.63;;;22.04;62.73
30708;BME280;17458;48.958;8.284;2023-09-08T06:15:22;100533.22;;;21.94;62.25
30708;BME280;17458;48.958;8.284;2023-09-08T06:18:08;100528.72;;;21.95;62.13
30708;BME280;17458;48.958;8.284;2023-09-08T06:20:52;100536.09;;;22.14;61.47
30708;BME280;17458;48.958;8.284;2023-09-08T06:23:36;100528.78;;;22.04;61.89
30708;BME280;17458;48.958;8.284;2023-09-08T06:26:20;100535.16;;;22.11;61.56
30708;BME280;17458;48.958;8.284;2023-09-08T06:29:04;100537.63;;;21.80;62.35
30708;BME280;17458;48.958;8.284;2023-09-08T06:31:49;100534.84;;;21.70;62.65
30708;BME280;17458;48.958;8.284;2023-09-08T06:34:33;100536.13;;;22.23;61.96
30708;BME280;17458;48.958;8.284;2023-09-08T06:37:20;100540.38;;;21.91;62.67
30708;BME280;17458;48.958;8.284;2023-09-08T06:40:04;100531.59;;;22.16;61.80
30708;BME280;17458;48.958;8.284;2023-09-08T06:42:50;100541.41;;;22.01;62.30
30708;BME280;17458;48.958;8.284;2023-09-08T06:45:47;100541.44;;;22.04;61.78
30708;BME280;17458;48.958;8.284;2023-09-08T06:48:32;100533.97;;;21.74;62.46
30708;BME280;17458;48.958;8.284;2023-09-08T06:51:17;100541.59;;;22.34;61.29
30708;BME280;17458;48.958;8.284;2023-09-08T06:54:01;100540.88;;;22.69;60.61
30708;BME280;17458;48.958;8.284;2023-09-08T06:56:52;100550.94;;;23.05;58.96
30708;BME280;17458;48.958;8.284;2023-09-08T06:59:36;100550.00;;;23.03;59.15
30708;BME280;17458;48.958;8.284;2023-09-08T07:02:20;100554.63;;;23.29;59.16
30708;BME280;17458;48.958;8.284;2023-09-08T07:05:04;100543.81;;;23.51;58.76
30708;BME280;17458;48.958;8.284;2023-09-08T07:07:51;100550.09;;;23.27;59.69
30708;BME280;17458;48.958;8.284;2023-09-08T07:10:36;100548.34;;;23.55;58.48
30708;BME280;17458;48.958;8.284;2023-09-08T07:13:19;100549.19;;;23.46;59.07
30708;BME280;17458;48.958;8.284;2023-09-08T07:16:04;100560.06;;;23.74;58.90
30708;BME280;17458;48.958;8.284;2023-09-08T07:18:49;100551.88;;;24.15;57.88
30708;BME280;17458;48.958;8.284;2023-09-08T07:21:33;100562.75;;;24.07;57.19
30708;BME280;17458;48.958;8.284;2023-09-08T07:24:17;100558.25;;;24.14;57.95
30708;BME280;17458;48.958;8.284;2023-09-08T07:27:01;100556.34;;;24.55;56.58
30708;BME280;17458;48.958;8.284;2023-09-08T07:29:47;100559.94;;;24.59;56.51
30708;BME280;17458;48.958;8.284;2023-09-08T07:32:33;100550.81;;;24.75;55.87
30708;BME280;17458;48.958;8.284;2023-09-08T07:35:19;100555.41;;;24.61;56.82
30708;BME280;17458;48.958;8.284;2023-09-08T07:38:05;100555.28;;;24.88;56.37
30708;BME280;17458;48.958;8.284;2023-09-08T07:40:49;100561.47;;;25.25;55.63
30708;BME280;17458;48.958;8.284;2023-09-08T07:43:33;100566.69;;;25.54;54.95
30708;BME280;17458;48.958;8.284;2023-09-08T07:46:17;100568.66;;;25.28;55.04
30708;BME280;17458;48.958;8.284;2023-09-08T07:49:01;100570.28;;;25.56;54.38
30708;BME280;17458;48.958;8.284;2023-09-08T07:51:45;100574.84;;;25.54;54.69
30708;BME280;17458;48.958;8.284;2023-09-08T07:54:29;100566.84;;;25.31;56.18
30708;BME280;17458;48.958;8.284;2023-09-08T07:57:13;100576.13;;;24.88;56.72
30708;BME280;17458;48.958;8.284;2023-09-08T07:59:57;100575.91;;;25.33;56.84
30708;BME280;17458;48.958;8.284;2023-09-08T08:02:44;100582.06;;;25.58;55.24
30708;BME280;17458;48.958;8.284;2023-09-08T08:05:29;100571.19;;;25.61;54.96
30708;BME280;17458;48.958;8.284;2023-09-08T08:08:12;100577.53;;;25.65;54.67
30708;BME280;17458;48.958;8.284;2023-09-08T08:10:57;100567.91;;;25.09;56.80
30708;BME280;17458;48.958;8.284;2023-09-08T08:13:41;100571.94;;;25.82;54.77
30708;BME280;17458;48.958;8.284;2023-09-08T08:16:25;100571.13;;;25.70;54.49
30708;BME280;17458;48.958;8.284;2023-09-08T08:19:09;100571.72;;;26.06;57.19
30708;BME280;17458;48.958;8.284;2023-09-08T08:21:53;100564.97;;;26.45;53.85
30708;BME280;17458;48.958;8.284;2023-09-08T08:24:37;100569.22;;;26.70;53.32
30708;BME280;17458;48.958;8.284;2023-09-08T08:27:21;100569.91;;;26.88;52.39
30708;BME280;17458;48.958;8.284;2023-09-08T08:30:05;100556.63;;;26.60;51.92
30708;BME280;17458;48.958;8.284;2023-09-08T08:32:50;100560.28;;;26.58;51.69
30708;BME280;17458;48.958;8.284;2023-09-08T08:35:34;100562.25;;;26.45;51.75
30708;BME280;17458;48.958;8.284;2023-09-08T08:38:19;100577.34;;;26.75;51.48
30708;BME280;17458;48.958;8.284;2023-09-08T08:41:04;100567.19;;;26.05;54.07
30708;BME280;17458;48.958;8.284;2023-09-08T08:43:49;100563.88;;;26.63;52.81
30708;BME280;17458;48.958;8.284;2023-09-08T08:46:36;100564.16;;;27.10;52.12
30708;BME280;17458;48.958;8.284;2023-09-08T08:49:21;100556.97;;;27.06;53.62
30708;BME280;17458;48.958;8.284;2023-09-08T08:52:06;100567.66;;;27.22;50.92
30708;BME280;17458;48.958;8.284;2023-09-08T08:54:53;100559.03;;;27.50;50.76
30708;BME280;17458;48.958;8.284;2023-09-08T08:57:38;100559.19;;;27.40;51.65
30708;BME280;17458;48.958;8.284;2023-09-08T09:00:23;100564.03;;;27.21;50.82
30708;BME280;17458;48.958;8.284;2023-09-08T09:03:07;100560.84;;;26.84;51.69
30708;BME280;17458;48.958;8.284;2023-09-08T09:05:52;100553.75;;;27.38;51.29
30708;BME280;17458;48.958;8.284;2023-09-08T09:08:38;100551.19;;;27.86;50.12
30708;BME280;17458;48.958;8.284;2023-09-08T09:11:22;100559.75;;;28.15;50.68
30708;BME280;17458;48.958;8.284;2023-09-08T09:14:06;100558.53;;;28.33;50.01
30708;BME280;17458;48.958;8.284;2023-09-08T09:16:50;100564.00;;;28.33;49.72
30708;BME280;17458;48.958;8.284;2023-09-08T09:19:34;100562.88;;;28.43;49.03
30708;BME280;17458;48.958;8.284;2023-09-08T09:22:20;100565.25;;;28.62;49.43
30708;BME280;17458;48.958;8.284;2023-09-08T09:25:05;100564.13;;;28.26;50.73
30708;BME280;17458;48.958;8.284;2023-09-08T09:27:56;100567.22;;;28.53;49.77
30708;BME280;17458;48.958;8.284;2023-09-08T09:30:51;100570.69;;;28.63;48.81
30708;BME280;17458;48.958;8.284;2023-09-08T09:33:35;100556.00;;;28.69;48.25
30708;BME280;17458;48.958;8.284;2023-09-08T09:36:22;100563.06;;;29.20;48.09
30708;BME280;17458;48.958;8.284;2023-09-08T09:39:06;100558.19;;;28.95;48.83
30708;BME280;17458;48.958;8.284;2023-09-08T09:41:54;100559.31;;;28.86;49.01
30708;BME280;17458;48.958;8.284;2023-09-08T09:44:38;100555.91;;;28.73;48.87
30708;BME280;17458;48.958;8.284;2023-09-08T09:47:24;100554.84;;;29.22;48.57
30708;BME280;17458;48.958;8.284;2023-09-08T09:50:08;100553.53;;;28.55;49.40
30708;BME280;17458;48.958;8.284;2023-09-08T09:52:56;100547.06;;;29.04;50.01
30708;BME280;17458;48.958;8.284;2023-09-08T09:55:42;100540.22;;;28.83;49.06
30708;BME280;17458;48.958;8.284;2023-09-08T09:58:27;100544.03;;;29.17;49.38
30708;BME280;17458;48.958;8.284;2023-09-08T10:01:12;100554.19;;;29.51;48.44
30708;BME280;17458;48.958;8.284;2023-09-08T10:03:57;100546.41;;;29.33;47.31
30708;BME280;17458;48.958;8.284;2023-09-08T10:06:43;100540.81;;;29.39;48.50
30708;BME280;17458;48.958;8.284;2023-09-08T10:09:28;100548.47;;;29.61;47.46
30708;BME280;17458;48.958;8.284;2023-09-08T10:12:14;100546.00;;;29.49;47.27
30708;BME280;17458;48.958;8.284;2023-09-08T10:15:00;100538.59;;;29.16;48.55
30708;BME280;17458;48.958;8.284;2023-09-08T10:17:47;100537.38;;;29.66;48.25
30708;BME280;17458;48.958;8.284;2023-09-08T10:20:33;100538.03;;;30.13;47.35
30708;BME280;17458;48.958;8.284;2023-09-08T10:23:35;100540.03;;;30.05;47.44
30708;BME280;17458;48.958;8.284;2023-09-08T10:26:22;100542.09;;;29.96;48.40
30708;BME280;17458;48.958;8.284;2023-09-08T10:29:09;100529.78;;;29.42;48.72
30708;BME280;17458;48.958;8.284;2023-09-08T10:31:55;100533.16;;;29.53;47.97
30708;BME280;17458;48.958;8.284;2023-09-08T10:34:40;100533.97;;;29.92;49.06
30708;BME280;17458;48.958;8.284;2023-09-08T10:37:25;100535.63;;;30.01;48.59
30708;BME280;17458;48.958;8.284;2023-09-08T10:40:24;100533.56;;;30.09;46.79
30708;BME280;17458;48.958;8.284;2023-09-08T10:43:11;100530.75;;;30.44;46.65
30708;BME280;17458;48.958;8.284;2023-09-08T10:45:56;100524.25;;;29.80;47.88
30708;BME280;17458;48.958;8.284;2023-09-08T10:48:44;100532.28;;;29.88;47.78
30708;BME280;17458;48.958;8.284;2023-09-08T10:51:28;100529.47;;;30.25;47.45
30708;BME280;17458;48.958;8.284;2023-09-08T10:54:48;100518.28;;;30.32;48.88
30708;BME280;17458;48.958;8.284;2023-09-08T10:57:33;100522.97;;;30.91;47.15
30708;BME280;17458;48.958;8.284;2023-09-08T11:00:17;100520.88;;;31.00;46.44
30708;BME280;17458;48.958;8.284;2023-09-08T11:03:01;100523.34;;;30.79;46.58
30708;BME280;17458;48.958;8.284;2023-09-08T11:05:47;100517.72;;;31.14;46.04
30708;BME280;17458;48.958;8.284;2023-09-08T11:08:40;100519.97;;;31.29;45.20
30708;BME280;17458;48.958;8.284;2023-09-08T11:11:24;100505.00;;;31.67;45.24
30708;BME280;17458;48.958;8.284;2023-09-08T11:14:09;100509.13;;;31.53;45.48
30708;BME280;17458;48.958;8.284;2023-09-08T11:16:53;100508.78;;;31.62;45.30
30708;BME280;17458;48.958;8.284;2023-09-08T11:19:47;100516.06;;;31.91;46.32
30708;BME280;17458;48.958;8.284;2023-09-08T11:22:31;100505.16;;;31.61;45.10
30708;BME280;17458;48.958;8.284;2023-09-08T11:25:15;100504.38;;;31.86;44.81
30708;BME280;17458;48.958;8.284;2023-09-08T11:27:59;100507.69;;;31.69;44.24
30708;BME280;17458;48.958;8.284;2023-09-08T11:30:48;100508.38;;;31.48;44.36
30708;BME280;17458;48.958;8.284;2023-09-08T11:33:34;100495.34;;;31.54;44.92
30708;BME280;17458;48.958;8.284;2023-09-08T11:36:18;100494.63;;;31.48;46.54
30708;BME280;17458;48.958;8.284;2023-09-08T11:39:04;100494.53;;;31.79;44.77
30708;BME280;17458;48.958;8.284;2023-09-08T11:41:50;100497.34;;;31.21;46.06
30708;BME280;17458;48.958;8.284;2023-09-08T11:44:35;100491.28;;;31.12;46.88
30708;BME280;17458;48.958;8.284;2023-09-08T11:47:19;100490.13;;;31.73;45.48
30708;BME280;17458;48.958;8.284;2023-09-08T11:50:04;100486.19;;;31.27;46.48
30708;BME280;17458;48.958;8.284;2023-09-08T11:52:52;100497.28;;;32.03;45.02
30708;BME280;17458;48.958;8.284;2023-09-08T11:55:36;100489.66;;;32.38;44.26
30708;BME280;17458;48.958;8.284;2023-09-08T11:58:21;100487.00;;;32.10;45.15
30708;BME280;17458;48.958;8.284;2023-09-08T12:01:06;100489.50;;;32.16;44.24
30708;BME280;17458;48.958;8.284;2023-09-08T12:03:51;100483.28;;;32.61;44.20
30708;BME280;17458;48.958;8.284;2023-09-08T12:06:37;100490.13;;;32.74;43.07
30708;BME280;17458;48.958;8.284;2023-09-08T12:09:21;100487.81;;;32.62;42.60
30708;BME280;17458;48.958;8.284;2023-09-08T12:12:11;100481.00;;;32.49;43.77
30708;BME280;17458;48.958;8.284;2023-09-08T12:14:55;100484.47;;;32.79;42.12
30708;BME280;17458;48.958;8.284;2023-09-08T12:17:49;100484.06;;;32.64;42.82
30708;BME280;17458;48.958;8.284;2023-09-08T12:20:35;100487.16;;;32.80;42.84
30708;BME280;17458;48.958;8.284;2023-09-08T12:23:21;100479.84;;;32.79;43.33
30708;BME280;17458;48.958;8.284;2023-09-08T12:26:05;100472.06;;;32.90;41.85
30708;BME280;17458;48.958;8.284;2023-09-08T12:28:49;100476.19;;;33.25;42.56
30708;BME280;17458;48.958;8.284;2023-09-08T12:31:34;100483.09;;;33.35;41.70
30708;BME280;17458;48.958;8.284;2023-09-08T12:34:18;100473.22;;;32.85;41.47
30708;BME280;17458;48.958;8.284;2023-09-08T12:37:02;100478.03;;;33.01;42.05
30708;BME280;17458;48.958;8.284;2023-09-08T12:39:46;100463.97;;;32.86;41.91
30708;BME280;17458;48.958;8.284;2023-09-08T12:42:30;100461.09;;;32.65;41.91
30708;BME280;17458;48.958;8.284;2023-09-08T12:45:14;100459.75;;;32.29;43.09
30708;BME280;17458;48.958;8.284;2023-09-08T12:48:00;100461.81;;;32.47;42.65
30708;BME280;17458;48.958;8.284;2023-09-08T12:50:46;100455.31;;;32.73;43.51
30708;BME280;17458;48.958;8.284;2023-09-08T12:53:34;100458.75;;;33.01;41.53
30708;BME280;17458;48.958;8.284;2023-09-08T12:56:21;100450.66;;;33.20;41.37
30708;BME280;17458;48.958;8.284;2023-09-08T12:59:05;100448.97;;;32.94;42.57
30708;BME280;17458;48.958;8.284;2023-09-08T13:01:49;100439.16;;;32.87;43.17
30708;BME280;17458;48.958;8.284;2023-09-08T13:04:33;100438.69;;;33.21;41.23
30708;BME280;17458;48.958;8.284;2023-09-08T13:07:18;100440.69;;;32.71;42.07
30708;BME280;17458;48.958;8.284;2023-09-08T13:10:02;100443.03;;;32.58;41.47
30708;BME280;17458;48.958;8.284;2023-09-08T13:12:46;100447.13;;;33.17;41.46
30708;BME280;17458;48.958;8.284;2023-09-08T13:15:32;100440.50;;;33.22;41.41
30708;BME280;17458;48.958;8.284;2023-09-08T13:18:16;100447.41;;;33.10;41.77
30708;BME280;17458;48.958;8.284;2023-09-08T13:21:00;100436.59;;;33.28;40.95
30708;BME280;17458;48.958;8.284;2023-09-08T13:23:44;100427.66;;;32.78;40.72
30708;BME280;17458;48.958;8.284;2023-09-08T13:26:28;100428.06;;;32.67;41.06
30708;BME280;17458;48.958;8.284;2023-09-08T13:29:12;100426.81;;;32.75;40.32
30708;BME280;17458;48.958;8.284;2023-09-08T13:31:56;100424.41;;;32.66;40.07
30708;BME280;17458;48.958;8.284;2023-09-08T13:34:41;100421.81;;;33.30;40.00
30708;BME280;17458;48.958;8.284;2023-09-08T13:37:27;100412.88;;;32.80;39.75
30708;BME280;17458;48.958;8.284;2023-09-08T13:40:11;100415.00;;;33.17;39.42
30708;BME280;17458;48.958;8.284;2023-09-08T13:42:57;100412.66;;;33.08;39.70
30708;BME280;17458;48.958;8.284;2023-09-08T13:45:40;100410.00;;;32.83;40.22
30708;BME280;17458;48.958;8.284;2023-09-08T13:48:26;100404.16;;;33.36;39.71
30708;BME280;17458;48.958;8.284;2023-09-08T13:51:10;100408.75;;;33.35;39.07
30708;BME280;17458;48.958;8.284;2023-09-08T13:53:54;100408.75;;;33.35;40.58
30708;BME280;17458;48.958;8.284;2023-09-08T13:56:40;100415.66;;;33.88;38.20
30708;BME280;17458;48.958;8.284;2023-09-08T13:59:24;100407.59;;;33.19;39.61
30708;BME280;17458;48.958;8.284;2023-09-08T14:02:08;100400.41;;;33.15;39.45
30708;BME280;17458;48.958;8.284;2023-09-08T14:04:52;100405.69;;;33.63;39.13
30708;BME280;17458;48.958;8.284;2023-09-08T14:07:36;100405.41;;;33.91;39.17
30708;BME280;17458;48.958;8.284;2023-09-08T14:10:20;100401.81;;;33.47;39.01
30708;BME280;17458;48.958;8.284;2023-09-08T14:13:04;100396.19;;;33.28;39.10
30708;BME280;17458;48.958;8.284;2023-09-08T14:15:48;100398.47;;;33.17;39.81
30708;BME280;17458;48.958;8.284;2023-09-08T14:18:33;100392.66;;;33.47;40.17
30708;BME280;17458;48.958;8.284;2023-09-08T14:21:17;100403.06;;;33.60;39.04
30708;BME280;17458;48.958;8.284;2023-09-08T14:24:01;100399.19;;;33.86;39.97
30708;BME280;17458;48.958;8.284;2023-09-08T14:26:45;100380.91;;;33.21;39.41
30708;BME280;17458;48.958;8.284;2023-09-08T14:29:29;100388.13;;;33.02;39.27
30708;BME280;17458;48.958;8.284;2023-09-08T14:32:16;100389.00;;;33.26;39.56